createdAt,value
2023-05-04T00:02:01.052Z,27.84
2023-05-04T00:07:02.439Z,27.90
2023-05-04T00:12:03.967Z,27.81
2023-05-04T00:17:06.568Z,27.84
2023-05-04T00:22:08.010Z,27.58
2023-05-04T00:27:10.460Z,27.71
2023-05-04T00:32:11.829Z,27.65
2023-05-04T00:37:13.210Z,27.49
2023-05-04T00:42:14.647Z,27.48
2023-05-04T00:47:16.792Z,27.49
2023-05-04T00:52:19.459Z,27.49
2023-05-04T00:57:20.835Z,27.51
2023-05-04T01:02:22.228Z,27.40
2023-05-04T01:07:29.893Z,27.24
2023-05-04T01:12:35.268Z,27.24
2023-05-04T01:17:36.811Z,27.35
2023-05-04T01:22:38.326Z,27.47
2023-05-04T01:27:56.492Z,27.46
2023-05-04T01:32:57.916Z,27.23
2023-05-04T01:37:59.449Z,27.23
2023-05-04T01:43:00.829Z,27.19
2023-05-04T01:48:02.228Z,27.25
2023-05-04T01:53:03.674Z,27.35
2023-05-04T01:58:05.060Z,27.42
2023-05-04T02:03:06.495Z,27.44
2023-05-04T02:08:07.953Z,27.45
2023-05-04T02:13:09.396Z,27.38
2023-05-04T02:18:10.923Z,27.32
2023-05-04T02:23:12.453Z,27.25
2023-05-04T02:28:13.873Z,27.51
2023-05-04T02:33:15.321Z,27.37
2023-05-04T02:38:16.703Z,27.21
2023-05-04T02:43:18.220Z,27.25
2023-05-04T02:48:19.632Z,27.20
2023-05-04T02:53:21.056Z,27.40
2023-05-04T02:58:22.444Z,27.21
2023-05-04T03:03:23.833Z,27.25
2023-05-04T03:08:25.346Z,27.20
2023-05-04T03:13:26.772Z,27.27
2023-05-04T03:18:28.160Z,27.20
2023-05-04T03:23:29.557Z,27.14
2023-05-04T03:28:31.346Z,27.04
2023-05-04T03:33:32.718Z,27.04
2023-05-04T03:38:34.233Z,27.22
2023-05-04T03:43:35.604Z,26.85
2023-05-04T03:48:36.986Z,26.68
2023-05-04T03:53:38.378Z,26.76
2023-05-04T03:58:39.752Z,26.79
2023-05-04T04:03:41.277Z,26.71
2023-05-04T04:08:42.768Z,27.03
2023-05-04T04:13:44.147Z,26.66
2023-05-04T04:18:46.280Z,26.63
2023-05-04T04:23:47.706Z,26.62
2023-05-04T04:28:50.790Z,26.74
2023-05-04T04:33:52.552Z,26.62
2023-05-04T04:38:53.964Z,26.84
2023-05-04T04:43:55.362Z,26.62
2023-05-04T04:48:57.019Z,27.04
2023-05-04T04:53:58.852Z,26.64
2023-05-04T04:59:00.279Z,26.59
2023-05-04T05:04:01.654Z,26.44
2023-05-04T05:09:03.161Z,26.45
2023-05-04T05:14:04.642Z,26.16
2023-05-04T05:19:06.055Z,26.39
2023-05-04T05:24:07.510Z,26.30
2023-05-04T05:29:09.410Z,26.46
2023-05-04T05:34:10.789Z,26.33
2023-05-04T05:39:12.197Z,26.50
2023-05-04T05:44:13.566Z,26.38
2023-05-04T05:49:14.940Z,26.34
2023-05-04T05:54:16.446Z,26.52
2023-05-04T05:59:17.823Z,26.48
2023-05-04T06:04:19.268Z,26.63
2023-05-04T06:09:21.007Z,26.61
2023-05-04T06:14:22.471Z,26.73
2023-05-04T06:19:23.872Z,26.56
2023-05-04T06:24:26.830Z,26.95
2023-05-04T06:29:28.318Z,27.07
2023-05-04T06:34:29.698Z,26.91
2023-05-04T06:39:31.319Z,26.69
2023-05-04T06:44:35.902Z,26.65
2023-05-04T06:49:37.379Z,26.77
2023-05-04T06:54:40.227Z,27.02
2023-05-04T06:59:42.017Z,26.96
2023-05-04T07:04:43.785Z,26.65
2023-05-04T07:09:47.737Z,26.57
2023-05-04T07:14:49.119Z,26.90
2023-05-04T07:19:52.455Z,27.17
2023-05-04T07:24:53.884Z,27.16
2023-05-04T07:29:55.672Z,27.25
2023-05-04T07:34:57.364Z,27.10
2023-05-04T07:40:00.279Z,27.12
2023-05-04T07:45:01.667Z,27.37
2023-05-04T07:50:04.318Z,27.41
2023-05-04T07:55:06.713Z,27.34
2023-05-04T08:00:09.592Z,27.46
2023-05-04T08:05:11.690Z,27.57
2023-05-04T08:10:13.140Z,27.39
2023-05-04T08:15:14.821Z,27.13
2023-05-04T08:20:16.781Z,27.03
2023-05-04T08:25:18.180Z,26.92
2023-05-04T08:30:19.625Z,27.03
2023-05-04T08:35:23.485Z,26.71
2023-05-04T08:40:24.959Z,26.67
2023-05-04T08:45:26.606Z,26.60
2023-05-04T08:50:27.978Z,26.57
2023-05-04T08:55:30.649Z,26.27
2023-05-04T09:00:32.971Z,26.54
2023-05-04T09:05:34.536Z,26.77
2023-05-04T09:10:36.868Z,26.43
2023-05-04T09:15:38.237Z,26.21
2023-05-04T09:20:43.315Z,25.93
2023-05-04T09:25:51.724Z,25.86
2023-05-04T09:30:59.621Z,25.80
2023-05-04T09:36:14.109Z,25.71
2023-05-04T09:41:15.507Z,25.47
2023-05-04T09:46:18.068Z,25.38
2023-05-04T09:51:23.101Z,25.27
2023-05-04T09:56:32.851Z,25.16
2023-05-04T10:01:34.313Z,24.94
2023-05-04T10:06:35.981Z,25.01
2023-05-04T10:11:37.390Z,25.23
2023-05-04T10:16:47.508Z,24.62
2023-05-04T10:22:04.310Z,24.68
2023-05-04T10:27:43.131Z,25.02
2023-05-04T10:32:44.562Z,24.95
2023-05-04T10:37:54.223Z,24.80
2023-05-04T10:42:55.756Z,25.03
2023-05-04T10:47:57.460Z,24.94
2023-05-04T10:53:00.010Z,25.24
2023-05-04T10:58:01.523Z,25.37
2023-05-04T11:03:03.538Z,25.44
2023-05-04T11:08:26.874Z,25.22
2023-05-04T11:13:31.862Z,25.11
2023-05-04T11:18:34.187Z,25.00
2023-05-04T11:23:35.631Z,25.06
2023-05-04T11:28:37.394Z,25.49
2023-05-04T11:33:38.833Z,25.35
2023-05-04T11:38:40.217Z,24.81
2023-05-04T11:43:42.640Z,24.78
2023-05-04T11:48:44.121Z,24.61
2023-05-04T11:53:45.551Z,24.79
2023-05-04T11:58:46.947Z,24.93
2023-05-04T12:03:53.778Z,24.78
2023-05-04T12:09:09.593Z,24.73
2023-05-04T12:14:13.605Z,24.59
2023-05-04T12:19:15.004Z,24.78
2023-05-04T12:24:16.439Z,25.01
2023-05-04T12:29:17.841Z,24.96
2023-05-04T12:34:19.259Z,24.91
2023-05-04T12:39:20.911Z,25.09
2023-05-04T12:44:22.340Z,24.94
2023-05-04T12:49:24.848Z,25.17
2023-05-04T12:54:26.579Z,25.11
2023-05-04T12:59:28.222Z,25.24
2023-05-04T13:04:29.602Z,25.21
2023-05-04T13:09:31.054Z,24.97
2023-05-04T13:19:40.427Z,25.15
2023-05-04T13:24:41.816Z,24.76
2023-05-04T13:29:44.111Z,24.73
2023-05-04T13:34:46.309Z,24.48
2023-05-04T13:39:47.753Z,24.42
2023-05-04T13:44:49.139Z,24.36
2023-05-04T13:49:50.830Z,24.28
2023-05-04T13:54:52.398Z,24.37
2023-05-04T14:00:05.773Z,24.18
2023-05-04T14:05:08.972Z,23.71
2023-05-04T14:10:10.712Z,23.72
2023-05-04T14:15:12.154Z,23.61
2023-05-04T14:20:13.766Z,23.62
2023-05-04T14:25:15.620Z,23.85
2023-05-04T14:30:17.057Z,24.12
2023-05-04T14:35:18.484Z,24.33
2023-05-04T14:40:19.940Z,24.15
2023-05-04T14:45:21.462Z,24.46
2023-05-04T14:50:22.848Z,24.49
2023-05-04T14:55:24.218Z,24.63
2023-05-04T15:00:25.788Z,24.89
2023-05-04T15:05:27.183Z,24.46
2023-05-04T15:10:28.679Z,24.82
2023-05-04T15:15:30.055Z,25.33
2023-05-04T15:20:31.421Z,25.10
2023-05-04T15:25:32.793Z,24.88
2023-05-04T15:30:34.174Z,25.01
2023-05-04T15:35:36.091Z,25.14
2023-05-04T15:40:37.533Z,24.93
2023-05-04T15:45:38.915Z,25.26
2023-05-04T15:50:40.383Z,25.51
2023-05-04T15:55:41.795Z,25.75
2023-05-04T16:00:43.174Z,25.38
2023-05-04T16:05:44.564Z,25.60
2023-05-04T16:10:46.417Z,25.50
2023-05-04T16:15:51.263Z,25.66
2023-05-04T16:20:54.482Z,25.35
2023-05-04T16:25:56.046Z,25.64
2023-05-04T16:30:57.778Z,25.73
2023-05-04T16:35:59.751Z,26.18
2023-05-04T16:41:01.252Z,26.41
2023-05-04T16:46:02.819Z,26.80
2023-05-04T16:51:05.137Z,27.17
2023-05-04T16:56:07.329Z,27.39
2023-05-04T17:01:10.461Z,27.62
2023-05-04T17:06:12.728Z,27.65
2023-05-04T17:11:14.110Z,27.82
2023-05-04T17:16:15.563Z,28.24
2023-05-04T17:21:17.207Z,28.05
2023-05-04T17:26:18.578Z,28.21
2023-05-04T17:31:19.989Z,28.35
2023-05-04T17:36:21.410Z,28.39
2023-05-04T17:41:24.655Z,28.27
2023-05-04T17:46:26.236Z,28.69
2023-05-04T17:51:27.786Z,28.85
2023-05-04T17:56:29.178Z,28.83
2023-05-04T18:01:30.672Z,28.96
2023-05-04T18:06:32.409Z,29.06
2023-05-04T18:11:33.842Z,29.60
2023-05-04T18:16:37.465Z,29.23
2023-05-04T18:21:38.980Z,29.70
2023-05-04T18:26:40.347Z,29.71
2023-05-04T18:31:41.764Z,29.77
2023-05-04T18:36:43.227Z,29.77
2023-05-04T18:41:44.619Z,29.81
2023-05-04T18:46:46.198Z,29.92
2023-05-04T18:51:47.586Z,30.27
2023-05-04T18:56:48.982Z,30.17
2023-05-04T19:01:50.359Z,30.16
2023-05-04T19:06:53.525Z,30.00
2023-05-04T19:11:54.908Z,30.11
2023-05-04T19:16:57.340Z,30.36
2023-05-04T19:21:58.719Z,30.72
2023-05-04T19:27:00.513Z,30.45
2023-05-04T19:32:12.014Z,30.63
2023-05-04T19:37:21.819Z,30.79
2023-05-04T19:42:23.199Z,31.30
2023-05-04T19:47:24.961Z,31.13
2023-05-04T19:52:26.375Z,30.91
2023-05-04T19:57:28.251Z,30.90
2023-05-04T20:02:29.748Z,30.88
2023-05-04T20:07:31.221Z,30.60
2023-05-04T20:12:34.000Z,30.50
2023-05-04T20:17:35.432Z,29.94
2023-05-04T20:22:38.170Z,29.66
2023-05-04T20:27:39.607Z,29.25
2023-05-04T20:32:41.030Z,29.38
2023-05-04T20:37:42.453Z,29.28
2023-05-04T20:42:44.084Z,29.22
2023-05-04T20:47:45.493Z,29.07
2023-05-04T20:52:47.153Z,28.95
2023-05-04T20:57:49.533Z,29.19
2023-05-04T21:02:51.100Z,29.08
2023-05-04T21:07:52.669Z,29.07
2023-05-04T21:12:54.156Z,29.17
2023-05-04T21:17:55.656Z,29.40
2023-05-04T21:22:57.455Z,29.35
2023-05-04T21:27:58.840Z,29.35
2023-05-04T21:33:00.619Z,29.48
2023-05-04T21:38:02.203Z,29.51
2023-05-04T21:43:03.606Z,29.44
2023-05-04T21:48:05.883Z,29.51
2023-05-04T21:53:07.288Z,29.56
2023-05-04T21:58:08.697Z,29.47
2023-05-04T22:03:11.154Z,29.53
2023-05-04T22:08:12.524Z,29.52
2023-05-04T22:13:14.021Z,29.76
2023-05-04T22:18:15.716Z,29.82
2023-05-04T22:23:17.120Z,29.68
2023-05-04T22:28:18.495Z,29.72
2023-05-04T22:33:19.862Z,29.76
2023-05-04T22:38:21.526Z,29.87
2023-05-04T22:43:22.923Z,29.92
2023-05-04T22:48:24.318Z,30.17
2023-05-04T22:53:25.694Z,30.40
2023-05-04T22:58:27.186Z,30.11
2023-05-04T23:03:28.704Z,30.19
2023-05-04T23:08:30.119Z,30.25
2023-05-04T23:13:31.496Z,30.18
2023-05-04T23:18:32.950Z,30.19
2023-05-04T23:23:34.512Z,30.18
2023-05-04T23:28:35.924Z,30.30
2023-05-04T23:33:37.362Z,30.24
2023-05-04T23:38:38.799Z,30.23
2023-05-04T23:43:40.202Z,30.46
2023-05-04T23:48:41.646Z,30.32
2023-05-04T23:53:43.031Z,30.40
2023-05-04T23:58:44.408Z,30.60
